Terminal Aerodrome Forecast
Issued by NWS New Orleans/Baton Rouge, LA

Home | Current Version | Previous Version | Text Only | Print | Product List | Glossary On
Versions: 1 2 3 4 5 6 7 8 9 10 11 12 13 14 15 16 17 18 19 20 21
566
FTUS44 KLIX 031120
TAFBTR
TAF
KBTR 031120Z 0312/0412 36004KT P6SM OVC010
     FM031500 36006KT P6SM BKN020
     FM031700 34007KT P6SM BKN035
     FM032100 33006KT P6SM SCT150=

USA.gov is the U.S. government's official web portal to all federal, state and local government web resources and services.